Time;durP1;ratioP1;P1;durP2;ratioP2;P2;SDS_P1;SDS_P2;PMS_P1;PMS_P2;Temp;Humidity;BMP_temperature;BMP_pressure;BME280_temperature;BME280_humidity;BME280_pressure;Samples;Min_cycle;Max_cycle;Signal;HPM_P1;HPM_P2
2021/08/14 00:01:56;;;;;;;;;;;;;;;;;;5137878;27;20438;-69
2021/08/14 00:04:40;;;;;;;15.75;10.30;;;;;;;;;;5134133;27;19918;-69
2021/08/14 00:07:25;;;;;;;11.15;9.13;;;;;;;;;;5132139;27;20046;-69
2021/08/14 00:10:09;;;;;;;15.80;10.77;;;;;;;;;;5136926;27;20038;-69
2021/08/14 00:12:54;;;;;;;17.67;11.25;;;;;;;;;;5132532;27;20510;-69
2021/08/14 00:15:39;;;;;;;14.07;10.05;;;;;;;;;;5139981;27;20038;-68
2021/08/14 00:18:23;;;;;;;12.38;9.98;;;;;;;;;;5136677;27;20038;-69
2021/08/14 00:21:07;;;;;;;15.57;11.07;;;;;;;;;;5134950;27;20038;-69
2021/08/14 00:23:52;;;;;;;20.65;10.80;;;;;;;;;;5129762;27;20398;-69
2021/08/14 00:26:36;;;;;;;;;;;;;;;;;;5134408;27;20517;-69
2021/08/14 00:29:20;;;;;;;14.10;10.50;;;;;;;;;;5137221;27;19918;-69
2021/08/14 00:32:05;;;;;;;;;;;;;;;;;;5132773;27;20066;-69
2021/08/14 00:34:49;;;;;;;18.52;11.07;;;;;;;;;;5130443;27;19922;-69
2021/08/14 00:37:33;;;;;;;;;;;;;;;;;;5132392;27;20042;-69
2021/08/14 00:40:17;;;;;;;18.92;10.82;;;;;;;;;;5135273;27;19923;-68
2021/08/14 00:43:02;;;;;;;14.70;9.98;;;;;;;;;;5134480;27;20038;-68
2021/08/14 00:45:46;;;;;;;18.55;10.35;;;;;;;;;;5137056;27;20038;-68
2021/08/14 00:48:31;;;;;;;14.80;9.90;;;;;;;;;;5134792;27;20046;-68
2021/08/14 00:51:15;;;;;;;19.58;10.63;;;;;;;;;;5139594;27;20039;-68
2021/08/14 00:53:59;;;;;;;;;;;;;;;;;;5139186;27;20038;-68
2021/08/14 00:56:44;;;;;;;13.53;9.00;;;;;;;;;;5133453;27;19918;-68
2021/08/14 00:59:28;;;;;;;14.10;9.75;;;;;;;;;;5132063;27;20034;-68
2021/08/14 01:02:14;;;;;;;10.38;8.63;;;;;;;;;;5135120;27;20043;-68
2021/08/14 01:04:58;;;;;;;15.73;9.35;;;;;;;;;;5131480;27;20031;-68
2021/08/14 01:07:43;;;;;;;11.13;8.82;;;;;;;;;;5129777;27;20399;-68
2021/08/14 01:10:27;;;;;;;12.85;9.20;;;;;;;;;;5136075;27;20031;-68
2021/08/14 01:13:13;;;;;;;12.05;9.55;;;;;;;;;;5134100;27;20038;-68
2021/08/14 01:16:00;;;;;;;18.20;9.70;;;;;;;;;;5134473;27;20027;-67
2021/08/14 01:18:46;;;;;;;20.40;10.48;;;;;;;;;;5139367;27;20383;-69
2021/08/14 01:21:30;;;;;;;14.38;9.30;;;;;;;;;;5138597;27;20034;-69
2021/08/14 01:24:14;;;;;;;;;;;;;;;;;;5128197;27;20038;-69
2021/08/14 01:26:59;;;;;;;11.87;8.80;;;;;;;;;;5130085;27;19918;-69
2021/08/14 01:29:43;;;;;;;12.90;10.95;;;;;;;;;;5133869;27;20035;-69
2021/08/14 01:32:28;;;;;;;;;;;;;;;;;;5133347;27;20043;-69
2021/08/14 01:35:12;;;;;;;17.77;10.10;;;;;;;;;;5135494;27;19926;-69
2021/08/14 01:37:56;;;;;;;;;;;;;;;;;;5136199;27;20038;-68
2021/08/14 01:40:41;;;;;;;17.58;9.20;;;;;;;;;;5134855;27;19918;-68
2021/08/14 01:43:25;;;;;;;;;;;;;;;;;;5130911;27;20418;-68
2021/08/14 01:46:10;;;;;;;16.98;10.73;;;;;;;;;;5135039;27;19926;-67
2021/08/14 01:48:54;;;;;;;17.58;11.48;;;;;;;;;;5133838;27;20042;-67
2021/08/14 01:51:38;;;;;;;15.43;10.48;;;;;;;;;;5132355;27;20054;-67
2021/08/14 01:54:23;;;;;;;15.75;10.18;;;;;;;;;;5138361;27;20038;-67
2021/08/14 01:57:07;;;;;;;17.42;10.88;;;;;;;;;;5133171;27;20046;-68
2021/08/14 01:59:52;;;;;;;12.95;10.70;;;;;;;;;;5131702;27;20030;-68
2021/08/14 02:02:36;;;;;;;13.57;10.05;;;;;;;;;;5132181;27;20038;-69
2021/08/14 02:05:20;;;;;;;15.07;10.80;;;;;;;;;;5136224;27;20038;-69
2021/08/14 02:08:05;;;;;;;13.57;10.20;;;;;;;;;;5134124;27;20050;-69
2021/08/14 02:10:50;;;;;;;22.30;11.02;;;;;;;;;;5136865;27;20034;-69
2021/08/14 02:13:34;;;;;;;16.88;10.55;;;;;;;;;;5129457;27;20403;-68
2021/08/14 02:16:18;;;;;;;;;;;;;;;;;;5136242;27;20411;-66
2021/08/14 02:19:03;;;;;;;22.80;10.87;;;;;;;;;;5139326;27;20306;-68
2021/08/14 02:21:47;;;;;;;14.90;10.50;;;;;;;;;;5137216;27;20395;-68
2021/08/14 02:24:32;;;;;;;;;;;;;;;;;;5129658;27;20050;-69
2021/08/14 02:27:16;;;;;;;;;;;;;;;;;;5132026;27;20378;-67
2021/08/14 02:30:01;;;;;;;13.73;10.47;;;;;;;;;;5136508;27;19944;-67
2021/08/14 02:32:47;;;;;;;12.77;10.55;;;;;;;;;;5131226;27;20034;-67
2021/08/14 02:35:31;;;;;;;14.13;9.65;;;;;;;;;;5126168;27;20505;-67
2021/08/14 02:38:16;;;;;;;15.95;9.80;;;;;;;;;;5137721;27;20031;-67
2021/08/14 02:41:01;;;;;;;14.73;9.10;;;;;;;;;;5137329;27;20398;-68
2021/08/14 02:43:45;;;;;;;15.82;10.25;;;;;;;;;;5128345;27;20038;-69
2021/08/14 02:46:31;;;;;;;15.15;9.32;;;;;;;;;;5140341;27;20058;-68
2021/08/14 02:49:15;;;;;;;;;;;;;;;;;;5142501;27;20046;-69
2021/08/14 02:51:59;;;;;;;15.57;9.70;;;;;;;;;;5133021;27;19914;-69
2021/08/14 02:54:44;;;;;;;12.07;9.40;;;;;;;;;;5133981;27;20034;-68
2021/08/14 02:57:28;;;;;;;17.92;10.20;;;;;;;;;;5136872;27;20039;-68
2021/08/14 03:00:13;;;;;;;11.07;8.65;;;;;;;;;;5138480;27;20034;-68
2021/08/14 03:02:57;;;;;;;11.52;9.68;;;;;;;;;;5130324;27;20031;-68
2021/08/14 03:05:41;;;;;;;12.05;9.10;;;;;;;;;;5134864;27;20050;-69
2021/08/14 03:08:26;;;;;;;13.18;9.45;;;;;;;;;;5142721;27;20038;-68
2021/08/14 03:11:10;;;;;;;12.90;8.50;;;;;;;;;;5139997;27;20038;-68
2021/08/14 03:13:54;;;;;;;14.30;9.43;;;;;;;;;;5137426;27;20047;-68
2021/08/14 03:16:39;;;;;;;;;;;;;;;;;;5116729;28;20031;-67
2021/08/14 03:19:23;;;;;;;10.55;8.85;;;;;;;;;;5141147;27;19914;-67
2021/08/14 03:22:07;;;;;;;;;;;;;;;;;;5139522;27;20031;-68
2021/08/14 03:24:52;;;;;;;13.02;9.15;;;;;;;;;;5142411;27;19914;-68
2021/08/14 03:27:37;;;;;;;;;;;;;;;;;;5140812;27;20047;-67
2021/08/14 03:30:21;;;;;;;13.85;9.65;;;;;;;;;;5142178;27;19914;-68
2021/08/14 03:33:06;;;;;;;13.27;8.43;;;;;;;;;;5133405;27;20034;-68
2021/08/14 03:35:50;;;;;;;10.57;9.15;;;;;;;;;;5129332;27;20050;-68
2021/08/14 03:38:36;;;;;;;12.13;9.27;;;;;;;;;;5137421;27;20035;-69
2021/08/14 03:41:21;;;;;;;16.80;9.20;;;;;;;;;;5140649;27;20402;-69
2021/08/14 03:44:05;;;;;;;;;;;;;;;;;;5133157;27;20505;-69
2021/08/14 03:46:49;;;;;;;12.43;8.73;;;;;;;;;;5135312;27;19915;-69
2021/08/14 03:49:33;;;;;;;13.73;8.73;;;;;;;;;;5132582;27;20039;-68
2021/08/14 03:52:20;;;;;;;;;;;;;;;;;;5138401;27;20046;-70
2021/08/14 03:55:06;;;;;;;16.23;8.50;;;;;;;;;;5141939;27;19914;-69
2021/08/14 03:57:50;;;;;;;54.50;16.08;;;;;;;;;;5128801;27;20043;-70
2021/08/14 04:00:35;;;;;;;15.48;9.25;;;;;;;;;;5140012;27;20505;-69
2021/08/14 04:03:19;;;;;;;14.63;8.93;;;;;;;;;;5135039;27;20031;-69
2021/08/14 04:06:04;;;;;;;18.45;10.45;;;;;;;;;;5141603;27;20046;-69
2021/08/14 04:08:49;;;;;;;15.18;10.38;;;;;;;;;;5141660;27;20398;-69
2021/08/14 04:11:33;;;;;;;14.07;10.10;;;;;;;;;;5139714;27;20050;-69
2021/08/14 04:14:18;;;;;;;14.25;8.93;;;;;;;;;;5141832;27;20050;-67
2021/08/14 04:17:03;;;;;;;15.05;10.05;;;;;;;;;;5141312;27;20038;-68
2021/08/14 04:19:47;;;;;;;15.65;9.05;;;;;;;;;;5140138;27;20038;-68
2021/08/14 04:22:31;;;;;;;17.05;9.35;;;;;;;;;;5136726;27;20039;-68
2021/08/14 04:25:16;;;;;;;13.70;8.90;;;;;;;;;;5140842;27;20031;-69
2021/08/14 04:28:00;;;;;;;14.80;8.73;;;;;;;;;;5141491;27;20054;-68
2021/08/14 04:30:45;;;;;;;12.70;9.05;;;;;;;;;;5141242;27;20039;-68
2021/08/14 04:33:29;;;;;;;15.38;9.20;;;;;;;;;;5141068;27;20050;-68
2021/08/14 04:36:13;;;;;;;16.20;8.38;;;;;;;;;;5120463;28;20031;-69
2021/08/14 04:38:57;;;;;;;;;;;;;;;;;;5120760;28;20040;-68
2021/08/14 04:41:42;;;;;;;12.18;8.25;;;;;;;;;;5129846;27;19918;-68
2021/08/14 04:44:27;;;;;;;14.90;8.32;;;;;;;;;;5140848;27;20038;-68
2021/08/14 04:47:11;;;;;;;13.95;9.07;;;;;;;;;;5140958;27;20050;-70
2021/08/14 04:49:55;;;;;;;16.45;7.88;;;;;;;;;;5140785;27;20046;-70
2021/08/14 04:52:39;;;;;;;11.75;8.15;;;;;;;;;;5135792;27;20057;-69
2021/08/14 04:55:24;;;;;;;10.88;8.48;;;;;;;;;;5140619;27;20043;-68
2021/08/14 04:58:11;;;;;;;17.52;8.02;;;;;;;;;;5140706;27;20048;-69
2021/08/14 05:00:55;;;;;;;9.90;8.52;;;;;;;;;;5140525;27;20039;-70
2021/08/14 05:03:39;;;;;;;;;;;;;;;;;;5141081;27;20317;-69
2021/08/14 05:06:24;;;;;;;13.60;8.02;;;;;;;;;;5140440;27;19918;-70
2021/08/14 05:09:08;;;;;;;;;;;;;;;;;;5141179;27;20502;-69
2021/08/14 05:11:52;;;;;;;14.52;9.63;;;;;;;;;;5137681;27;19973;-69
2021/08/14 05:14:37;;;;;;;21.23;9.48;;;;;;;;;;5140394;27;20394;-69
2021/08/14 05:17:21;;;;;;;11.93;8.25;;;;;;;;;;5140237;27;20035;-69
2021/08/14 05:20:05;;;;;;;14.25;9.30;;;;;;;;;;5140287;27;20513;-70
2021/08/14 05:22:50;;;;;;;13.95;7.68;;;;;;;;;;5134585;27;20398;-69
2021/08/14 05:25:34;;;;;;;11.77;8.38;;;;;;;;;;5138505;27;20038;-70
2021/08/14 05:28:21;;;;;;;13.95;8.68;;;;;;;;;;5139992;27;20031;-69
2021/08/14 05:31:07;;;;;;;12.07;7.72;;;;;;;;;;5133321;27;20054;-69
2021/08/14 05:33:51;;;;;;;11.30;7.60;;;;;;;;;;5139924;27;20041;-69
2021/08/14 05:36:35;;;;;;;10.77;7.97;;;;;;;;;;5139899;27;20043;-70
2021/08/14 05:39:19;;;;;;;;;;;;;;;;;;5140349;27;20413;-68
2021/08/14 05:42:04;;;;;;;12.55;8.07;;;;;;;;;;5136594;27;19914;-68
2021/08/14 05:44:48;;;;;;;;;;;;;;;;;;5140242;27;20035;-70
2021/08/14 05:47:32;;;;;;;10.50;8.03;;;;;;;;;;5139876;27;19977;-70
2021/08/14 05:50:18;;;;;;;15.35;7.95;;;;;;;;;;5139604;27;20268;-70
2021/08/14 05:53:03;;;;;;;11.88;7.18;;;;;;;;;;5133556;27;20425;-70
2021/08/14 05:55:48;;;;;;;;;;;;;;;;;;5140143;27;20046;-70
2021/08/14 05:58:32;;;;;;;15.03;6.93;;;;;;;;;;5139680;27;19918;-69
2021/08/14 06:01:17;;;;;;;15.82;6.60;;;;;;;;;;5138617;27;20039;-70
2021/08/14 06:04:01;;;;;;;15.38;5.85;;;;;;;;;;5139706;27;20039;-70
2021/08/14 06:06:47;;;;;;;9.43;6.60;;;;;;;;;;5124159;27;20046;-70
2021/08/14 06:09:31;;;;;;;;;;;;;;;;;;5140064;27;20372;-69
2021/08/14 06:12:15;;;;;;;9.57;6.13;;;;;;;;;;5136275;27;19915;-70
2021/08/14 06:14:59;;;;;;;;;;;;;;;;;;5144290;27;20035;-70
2021/08/14 06:17:44;;;;;;;10.67;5.63;;;;;;;;;;5143801;27;19918;-70
2021/08/14 06:20:28;;;;;;;8.15;6.13;;;;;;;;;;5143640;27;20039;-70
2021/08/14 06:23:13;;;;;;;13.85;6.18;;;;;;;;;;5137290;27;20470;-70
2021/08/14 06:25:57;;;;;;;10.88;6.38;;;;;;;;;;5141454;27;20027;-70
2021/08/14 06:28:41;;;;;;;;;;;;;;;;;;5144018;27;20035;-70
2021/08/14 06:31:26;;;;;;;8.88;5.68;;;;;;;;;;5142048;27;19915;-70
2021/08/14 06:34:10;;;;;;;;;;;;;;;;;;5143974;27;20375;-70
2021/08/14 06:36:54;;;;;;;7.30;5.23;;;;;;;;;;5143369;27;19919;-70
2021/08/14 06:39:39;;;;;;;8.90;6.10;;;;;;;;;;5143438;27;20257;-70
2021/08/14 06:42:24;;;;;;;9.40;5.68;;;;;;;;;;5139092;27;20043;-70
2021/08/14 06:45:08;;;;;;;10.73;6.32;;;;;;;;;;5143263;27;20027;-70
2021/08/14 06:47:53;;;;;;;13.85;6.13;;;;;;;;;;5143209;27;20046;-70
2021/08/14 06:50:37;;;;;;;10.90;6.30;;;;;;;;;;5143163;27;20042;-69
2021/08/14 06:53:21;;;;;;;10.30;5.63;;;;;;;;;;5136104;27;20043;-70
2021/08/14 06:56:06;;;;;;;13.82;7.40;;;;;;;;;;5142931;27;20043;-70
2021/08/14 06:58:51;;;;;;;15.75;9.43;;;;;;;;;;5142937;27;20042;-70
2021/08/14 07:01:35;;;;;;;11.23;9.27;;;;;;;;;;5141099;27;20701;-70
2021/08/14 07:04:19;;;;;;;12.50;9.02;;;;;;;;;;5142916;27;20035;-69
2021/08/14 07:07:05;;;;;;;20.23;9.35;;;;;;;;;;5139333;27;20043;-70
2021/08/14 07:09:49;;;;;;;17.15;8.15;;;;;;;;;;5142824;27;20039;-70
2021/08/14 07:12:33;;;;;;;16.75;8.27;;;;;;;;;;5135775;27;20049;-69
2021/08/14 07:15:18;;;;;;;20.00;8.38;;;;;;;;;;5142657;27;20046;-70
2021/08/14 07:18:02;;;;;;;11.35;8.60;;;;;;;;;;5142468;27;20406;-70
2021/08/14 07:20:47;;;;;;;9.43;7.30;;;;;;;;;;5142524;27;20031;-70
2021/08/14 07:23:31;;;;;;;10.90;6.60;;;;;;;;;;5143712;27;20032;-77
2021/08/14 07:26:16;;;;;;;12.20;6.75;;;;;;;;;;5141300;27;20046;-75
2021/08/14 07:29:00;;;;;;;9.45;5.53;;;;;;;;;;5144731;27;20042;-76
2021/08/14 07:31:45;;;;;;;11.85;6.72;;;;;;;;;;5141658;27;20043;-77
2021/08/14 07:34:29;;;;;;;13.70;6.63;;;;;;;;;;5143905;27;20042;-77
2021/08/14 07:37:13;;;;;;;11.77;6.32;;;;;;;;;;5143800;27;20039;-77
2021/08/14 07:39:57;;;;;;;9.88;6.38;;;;;;;;;;5143768;27;20611;-77
2021/08/14 07:42:42;;;;;;;9.60;6.10;;;;;;;;;;5138744;27;20491;-76
2021/08/14 07:45:26;;;;;;;11.40;6.53;;;;;;;;;;5122335;27;20035;-76
2021/08/14 07:48:11;;;;;;;17.08;7.68;;;;;;;;;;5142106;27;20537;-77
2021/08/14 07:50:55;;;;;;;8.15;5.35;;;;;;;;;;5136300;27;20039;-77
2021/08/14 07:53:40;;;;;;;7.35;5.60;;;;;;;;;;5143366;27;20035;-77
2021/08/14 07:56:24;;;;;;;9.32;5.45;;;;;;;;;;5139839;27;20040;-76
2021/08/14 07:59:08;;;;;;;12.18;6.55;;;;;;;;;;5123075;28;20497;-77
2021/08/14 08:01:53;;;;;;;14.35;7.55;;;;;;;;;;5120209;28;20028;-77
2021/08/14 08:04:37;;;;;;;9.55;7.00;;;;;;;;;;5128971;27;20042;-77
2021/08/14 08:07:21;;;;;;;11.15;7.70;;;;;;;;;;5125758;27;20035;-77
2021/08/14 08:10:07;;;;;;;11.05;7.45;;;;;;;;;;5143437;27;20042;-77
2021/08/14 08:12:51;;;;;;;11.50;7.55;;;;;;;;;;5136397;27;20031;-76
2021/08/14 08:15:35;;;;;;;12.40;6.65;;;;;;;;;;5141390;27;20037;-77
2021/08/14 08:18:19;;;;;;;14.77;6.80;;;;;;;;;;5138395;27;20031;-77
2021/08/14 08:21:05;;;;;;;13.00;6.93;;;;;;;;;;5142902;27;20062;-77
2021/08/14 08:23:49;;;;;;;7.15;5.90;;;;;;;;;;5143125;27;20035;-76
2021/08/14 08:26:33;;;;;;;11.65;6.53;;;;;;;;;;5130772;27;20403;-77
2021/08/14 08:29:18;;;;;;;7.85;5.85;;;;;;;;;;5142729;27;20035;-77
2021/08/14 08:32:02;;;;;;;12.77;7.22;;;;;;;;;;5137078;27;20164;-77
2021/08/14 08:34:46;;;;;;;11.57;6.35;;;;;;;;;;5134914;27;20040;-75
2021/08/14 08:37:30;;;;;;;10.82;6.30;;;;;;;;;;5135527;27;20058;-76
2021/08/14 08:40:15;;;;;;;13.43;6.55;;;;;;;;;;5139212;27;20035;-77
2021/08/14 08:43:01;;;;;;;17.70;6.55;;;;;;;;;;5136037;27;20035;-76
2021/08/14 08:45:45;;;;;;;12.57;6.60;;;;;;;;;;5130336;27;20034;-76
2021/08/14 08:48:30;;;;;;;16.25;6.63;;;;;;;;;;5140785;27;20043;-76
2021/08/14 08:51:15;;;;;;;13.38;7.18;;;;;;;;;;5139027;27;20505;-76
2021/08/14 08:53:59;;;;;;;10.48;6.30;;;;;;;;;;5137108;27;20043;-77
2021/08/14 08:56:43;;;;;;;10.18;6.65;;;;;;;;;;5137754;27;20034;-76
2021/08/14 08:59:28;;;;;;;12.40;6.18;;;;;;;;;;5138714;27;20031;-77
2021/08/14 09:02:22;;;;;;;10.27;6.75;;;;;;;;;;5116466;28;20038;-76
2021/08/14 09:05:17;;;;;;;15.30;7.05;;;;;;;;;;5130889;27;20047;-77
2021/08/14 09:08:09;;;;;;;13.18;6.15;;;;;;;;;;5135909;27;20035;-77
2021/08/14 09:11:10;;;;;;;8.48;5.78;;;;;;;;;;5116331;27;20494;-76
2021/08/14 09:14:03;;;;;;;17.92;7.18;;;;;;;;;;5136674;27;20032;-76
2021/08/14 09:17:06;;;;;;;10.25;6.68;;;;;;;;;;5133484;27;20046;-74
2021/08/14 09:20:08;;;;;;;13.57;6.22;;;;;;;;;;5138633;27;20034;-77
2021/08/14 09:23:06;;;;;;;9.20;6.55;;;;;;;;;;5132946;27;20043;-77
2021/08/14 09:25:57;;;;;;;8.85;5.90;;;;;;;;;;5133099;27;20023;-77
2021/08/14 09:28:41;;;;;;;8.40;5.18;;;;;;;;;;5134988;27;20035;-76
2021/08/14 09:31:26;;;;;;;8.88;5.10;;;;;;;;;;5134558;27;20035;-77
2021/08/14 09:34:14;;;;;;;26.67;6.78;;;;;;;;;;5131309;27;20475;-76
2021/08/14 09:37:09;;;;;;;12.25;5.78;;;;;;;;;;5129787;27;20503;-76
2021/08/14 09:39:56;;;;;;;13.35;5.07;;;;;;;;;;5134603;27;20395;-76
2021/08/14 09:42:51;;;;;;;8.60;5.10;;;;;;;;;;5134072;27;20031;-76
2021/08/14 09:45:36;;;;;;;10.77;4.90;;;;;;;;;;5119691;28;20035;-76
2021/08/14 09:48:22;;;;;;;9.38;5.47;;;;;;;;;;5120736;27;20039;-77
2021/08/14 09:51:26;;;;;;;6.45;4.82;;;;;;;;;;5133852;27;20043;-76
2021/08/14 09:54:11;;;;;;;5.63;4.75;;;;;;;;;;5119582;28;20031;-76
2021/08/14 09:56:55;;;;;;;9.70;5.50;;;;;;;;;;5122738;27;20035;-77
2021/08/14 09:59:40;;;;;;;7.28;4.78;;;;;;;;;;5134897;27;20032;-75
2021/08/14 10:02:26;;;;;;;7.95;4.70;;;;;;;;;;5130692;27;20490;-76
2021/08/14 10:05:10;;;;;;;9.63;4.20;;;;;;;;;;5128470;27;20027;-75
2021/08/14 10:07:55;;;;;;;6.70;4.07;;;;;;;;;;5131685;27;20043;-76
2021/08/14 10:10:39;;;;;;;115.53;10.35;;;;;;;;;;5128515;27;20035;-76
2021/08/14 10:13:24;;;;;;;41.38;5.60;;;;;;;;;;5136924;27;20050;-76
2021/08/14 10:16:09;;;;;;;11.13;3.90;;;;;;;;;;5127578;27;20038;-77
2021/08/14 10:18:55;;;;;;;10.18;4.07;;;;;;;;;;5122845;27;20535;-77
2021/08/14 10:21:39;;;;;;;7.15;4.22;;;;;;;;;;5132677;27;20404;-76
2021/08/14 10:24:24;;;;;;;6.60;3.97;;;;;;;;;;5137604;27;20490;-75
2021/08/14 10:27:10;;;;;;;9.88;4.10;;;;;;;;;;5128172;28;20035;-77
2021/08/14 10:29:58;;;;;;;8.57;4.65;;;;;;;;;;5129624;27;20031;-76
2021/08/14 10:32:42;;;;;;;10.93;4.40;;;;;;;;;;5128364;27;20031;-75
2021/08/14 10:35:26;;;;;;;10.27;4.70;;;;;;;;;;5131631;27;20066;-75
2021/08/14 10:38:31;;;;;;;5.82;4.35;;;;;;;;;;5130789;27;20396;-77
2021/08/14 10:41:15;;;;;;;10.82;4.25;;;;;;;;;;5135487;27;20028;-77
2021/08/14 10:44:01;;;;;;;7.10;4.30;;;;;;;;;;5134714;27;20501;-75
2021/08/14 10:46:52;;;;;;;7.60;4.50;;;;;;;;;;5124334;27;20039;-77
2021/08/14 10:49:38;;;;;;;7.78;4.38;;;;;;;;;;5136571;27;20039;-76
2021/08/14 10:52:33;;;;;;;7.35;4.10;;;;;;;;;;5132985;27;20039;-76
2021/08/14 10:55:17;;;;;;;7.50;4.03;;;;;;;;;;5126959;28;20027;-76
2021/08/14 10:58:22;;;;;;;10.32;4.20;;;;;;;;;;5136411;27;20036;-76
2021/08/14 11:01:10;;;;;;;6.80;4.93;;;;;;;;;;5137307;27;20027;-75
2021/08/14 11:03:54;;;;;;;6.18;3.95;;;;;;;;;;5138379;27;20027;-76
2021/08/14 11:06:38;;;;;;;9.23;4.05;;;;;;;;;;5140383;27;20027;-76
2021/08/14 11:09:22;;;;;;;5.32;3.67;;;;;;;;;;5141799;27;20423;-75
2021/08/14 11:12:07;;;;;;;6.40;3.78;;;;;;;;;;5138325;27;20035;-76
2021/08/14 11:14:52;;;;;;;7.60;3.70;;;;;;;;;;5122782;28;20040;-76
2021/08/14 11:17:36;;;;;;;8.98;4.50;;;;;;;;;;5135680;27;20035;-76
2021/08/14 11:20:21;;;;;;;5.03;4.20;;;;;;;;;;5133820;27;20027;-76
2021/08/14 11:23:22;;;;;;;16.08;4.10;;;;;;;;;;5136480;27;20031;-76
2021/08/14 11:26:06;;;;;;;6.18;4.43;;;;;;;;;;5134174;27;20031;-76
2021/08/14 11:28:50;;;;;;;6.57;4.35;;;;;;;;;;5138824;27;20035;-75
2021/08/14 11:31:35;;;;;;;8.32;4.38;;;;;;;;;;5134302;27;20034;-75
2021/08/14 11:34:21;;;;;;;8.20;3.25;;;;;;;;;;5141926;27;20039;-75
2021/08/14 11:37:05;;;;;;;7.32;3.78;;;;;;;;;;5141451;27;20494;-76
2021/08/14 11:40:00;;;;;;;10.05;3.95;;;;;;;;;;5139699;27;20027;-76
2021/08/14 11:42:52;;;;;;;11.55;3.75;;;;;;;;;;5127765;27;20031;-76
2021/08/14 11:45:38;;;;;;;7.45;4.70;;;;;;;;;;5136014;27;20031;-74
2021/08/14 11:48:22;;;;;;;8.98;4.28;;;;;;;;;;5137127;27;20035;-76
2021/08/14 11:51:15;;;;;;;11.30;4.30;;;;;;;;;;5136423;27;20367;-76
2021/08/14 11:54:10;;;;;;;11.38;3.88;;;;;;;;;;5133251;27;20056;-77
2021/08/14 11:57:06;;;;;;;7.28;3.78;;;;;;;;;;5135741;27;20034;-76
2021/08/14 11:59:51;;;;;;;8.52;4.72;;;;;;;;;;5138664;27;20023;-75
2021/08/14 12:02:35;;;;;;;9.50;4.28;;;;;;;;;;5136097;27;20031;-77
2021/08/14 12:05:23;;;;;;;7.57;4.60;;;;;;;;;;5128021;27;20031;-76
2021/08/14 12:08:09;;;;;;;7.80;4.07;;;;;;;;;;5135039;27;20027;-77
2021/08/14 12:10:53;;;;;;;10.02;4.25;;;;;;;;;;5138976;27;20043;-77
2021/08/14 12:13:38;;;;;;;10.77;4.28;;;;;;;;;;5135961;27;20031;-76
2021/08/14 12:16:24;;;;;;;5.88;4.10;;;;;;;;;;5134269;27;20054;-77
2021/08/14 12:19:13;;;;;;;8.45;3.83;;;;;;;;;;5138711;27;20031;-77
2021/08/14 12:22:08;;;;;;;7.85;4.63;;;;;;;;;;5135712;27;20050;-76
2021/08/14 12:24:53;;;;;;;11.38;3.88;;;;;;;;;;5132410;27;20518;-77
2021/08/14 12:27:37;;;;;;;5.65;3.80;;;;;;;;;;5137326;27;20040;-75
2021/08/14 12:30:23;;;;;;;9.98;4.00;;;;;;;;;;5140037;27;20379;-76
2021/08/14 12:33:28;;;;;;;6.43;3.38;;;;;;;;;;5134247;27;20031;-76
2021/08/14 12:36:12;;;;;;;6.50;3.38;;;;;;;;;;5137797;27;20031;-76
2021/08/14 12:38:57;;;;;;;10.68;3.72;;;;;;;;;;5139932;27;20027;-76
2021/08/14 12:41:42;;;;;;;7.05;3.53;;;;;;;;;;5134387;27;20406;-76
2021/08/14 12:44:42;;;;;;;8.07;3.80;;;;;;;;;;5137745;27;20479;-76
2021/08/14 12:47:28;;;;;;;10.57;3.45;;;;;;;;;;5134247;27;20035;-76
2021/08/14 12:50:24;;;;;;;13.65;4.35;;;;;;;;;;5135590;27;20054;-76
2021/08/14 12:53:10;;;;;;;5.22;4.30;;;;;;;;;;5134868;27;20517;-76
2021/08/14 12:55:55;;;;;;;11.25;5.22;;;;;;;;;;5130101;27;20060;-76
2021/08/14 12:58:39;;;;;;;5.03;4.07;;;;;;;;;;5137769;27;20038;-76
2021/08/14 13:01:24;;;;;;;8.75;3.75;;;;;;;;;;5134531;27;20039;-75
2021/08/14 13:04:08;;;;;;;11.77;4.30;;;;;;;;;;5131362;27;20483;-76
2021/08/14 13:06:52;;;;;;;6.68;4.20;;;;;;;;;;5136823;27;20035;-75
2021/08/14 13:09:37;;;;;;;24.00;4.05;;;;;;;;;;5137037;27;20031;-75
2021/08/14 13:12:21;;;;;;;12.63;4.43;;;;;;;;;;5132336;27;20402;-76
2021/08/14 13:15:06;;;;;;;6.50;3.65;;;;;;;;;;5127104;27;20035;-77
2021/08/14 13:17:50;;;;;;;7.90;3.92;;;;;;;;;;5129335;27;20628;-76
2021/08/14 13:20:35;;;;;;;7.40;3.50;;;;;;;;;;5133663;27;20027;-75
2021/08/14 13:23:20;;;;;;;6.18;4.00;;;;;;;;;;5129486;27;20042;-75
2021/08/14 13:26:04;;;;;;;3.85;3.47;;;;;;;;;;5128526;27;20061;-76
2021/08/14 13:28:48;;;;;;;7.75;4.20;;;;;;;;;;5127093;27;20035;-76
2021/08/14 13:31:34;;;;;;;8.80;3.53;;;;;;;;;;5129992;27;20043;-76
2021/08/14 13:34:18;;;;;;;12.93;4.18;;;;;;;;;;5134611;27;20035;-76
2021/08/14 13:37:02;;;;;;;5.57;3.78;;;;;;;;;;5134776;27;20400;-76
2021/08/14 13:39:47;;;;;;;5.78;3.30;;;;;;;;;;5140122;27;20031;-76
2021/08/14 13:42:32;;;;;;;11.18;3.60;;;;;;;;;;5132687;27;20027;-75
2021/08/14 13:45:18;;;;;;;8.98;3.50;;;;;;;;;;5129993;27;20024;-77
2021/08/14 13:48:03;;;;;;;8.55;3.90;;;;;;;;;;5134180;27;20031;-77
2021/08/14 13:50:48;;;;;;;5.57;3.33;;;;;;;;;;5135881;27;20372;-77
2021/08/14 13:53:32;;;;;;;8.55;4.15;;;;;;;;;;5134397;27;20035;-75
2021/08/14 13:56:16;;;;;;;9.52;3.80;;;;;;;;;;5135262;27;20031;-76
2021/08/14 13:59:03;;;;;;;7.82;3.60;;;;;;;;;;5112694;28;20039;-76
2021/08/14 14:01:48;;;;;;;13.40;4.18;;;;;;;;;;5133666;27;20031;-77
2021/08/14 14:04:32;;;;;;;7.07;3.90;;;;;;;;;;5132070;27;20038;-76
2021/08/14 14:07:20;;;;;;;7.80;3.55;;;;;;;;;;5117502;27;20039;-76
2021/08/14 14:10:04;;;;;;;15.13;4.07;;;;;;;;;;5134547;27;20035;-77
2021/08/14 14:12:49;;;;;;;7.10;3.90;;;;;;;;;;5125893;28;20027;-77
2021/08/14 14:15:35;;;;;;;5.05;3.35;;;;;;;;;;5135631;27;20047;-77
2021/08/14 14:18:19;;;;;;;6.63;3.88;;;;;;;;;;5133489;27;20031;-76
2021/08/14 14:21:04;;;;;;;9.05;3.40;;;;;;;;;;5139374;27;20039;-77
2021/08/14 14:23:48;;;;;;;5.75;3.53;;;;;;;;;;5132746;28;20027;-77
2021/08/14 14:26:32;;;;;;;11.65;3.78;;;;;;;;;;5132442;27;20043;-76
2021/08/14 14:29:17;;;;;;;17.30;5.50;;;;;;;;;;5137414;27;20038;-75
2021/08/14 14:32:01;;;;;;;10.93;4.03;;;;;;;;;;5136580;27;20039;-76
2021/08/14 14:34:45;;;;;;;10.90;3.35;;;;;;;;;;5141257;27;20363;-76
2021/08/14 14:37:29;;;;;;;10.10;3.25;;;;;;;;;;5144599;27;20513;-76
2021/08/14 14:40:14;;;;;;;6.40;3.55;;;;;;;;;;5136875;27;20034;-76
2021/08/14 14:42:58;;;;;;;5.03;3.28;;;;;;;;;;5138403;27;20380;-76
2021/08/14 14:45:44;;;;;;;7.05;3.72;;;;;;;;;;5142205;27;20035;-75
2021/08/14 14:48:28;;;;;;;8.45;3.33;;;;;;;;;;5144253;27;20035;-77
2021/08/14 14:51:13;;;;;;;4.50;3.80;;;;;;;;;;5132403;27;20031;-75
2021/08/14 14:53:57;;;;;;;11.50;3.90;;;;;;;;;;5135136;27;20035;-76
2021/08/14 14:56:41;;;;;;;7.72;3.72;;;;;;;;;;5143154;27;20031;-76
2021/08/14 14:59:26;;;;;;;6.03;3.50;;;;;;;;;;5138677;27;20082;-77
2021/08/14 15:02:11;;;;;;;7.88;3.50;;;;;;;;;;5136501;27;20031;-75
2021/08/14 15:04:57;;;;;;;8.15;3.88;;;;;;;;;;5144111;27;20039;-77
2021/08/14 15:07:41;;;;;;;8.15;3.50;;;;;;;;;;5142321;27;20490;-76
2021/08/14 15:10:25;;;;;;;6.40;3.42;;;;;;;;;;5143104;27;20035;-76
2021/08/14 15:13:10;;;;;;;7.07;3.63;;;;;;;;;;5134452;27;20035;-75
2021/08/14 15:15:54;;;;;;;6.88;3.53;;;;;;;;;;5137143;27;20400;-77
2021/08/14 15:18:38;;;;;;;7.13;3.65;;;;;;;;;;5140697;27;20035;-77
2021/08/14 15:21:22;;;;;;;12.75;3.55;;;;;;;;;;5139275;27;20031;-75
2021/08/14 15:24:06;;;;;;;7.10;3.33;;;;;;;;;;5135370;27;20027;-73
2021/08/14 15:26:53;;;;;;;4.88;3.42;;;;;;;;;;5132474;27;20031;-76
2021/08/14 15:29:37;;;;;;;8.32;3.10;;;;;;;;;;5141359;27;20031;-78
2021/08/14 15:32:22;;;;;;;6.15;3.50;;;;;;;;;;5134518;27;20035;-77
2021/08/14 15:35:07;;;;;;;12.55;3.53;;;;;;;;;;5135285;27;20035;-76
2021/08/14 15:37:53;;;;;;;7.07;3.20;;;;;;;;;;5135647;27;20046;-76
2021/08/14 15:40:40;;;;;;;6.60;3.45;;;;;;;;;;5141540;27;20024;-75
2021/08/14 15:43:24;;;;;;;6.05;3.45;;;;;;;;;;5130975;27;20043;-74
2021/08/14 15:46:08;;;;;;;9.07;4.13;;;;;;;;;;5140867;27;20023;-75
2021/08/14 15:48:54;;;;;;;6.30;3.80;;;;;;;;;;5137791;27;20035;-73
2021/08/14 15:51:38;;;;;;;11.50;3.28;;;;;;;;;;5135805;27;20376;-73
2021/08/14 15:54:23;;;;;;;5.10;3.10;;;;;;;;;;5136700;27;20517;-74
2021/08/14 15:57:08;;;;;;;9.80;3.35;;;;;;;;;;5135539;27;20027;-75
2021/08/14 15:59:52;;;;;;;12.45;3.42;;;;;;;;;;5143591;27;20030;-75
2021/08/14 16:02:36;;;;;;;10.40;4.28;;;;;;;;;;5132664;27;20027;-76
2021/08/14 16:05:21;;;;;;;6.78;3.85;;;;;;;;;;5135215;27;20034;-75
2021/08/14 16:08:05;;;;;;;7.97;4.00;;;;;;;;;;5135287;27;20027;-77
2021/08/14 16:10:50;;;;;;;12.75;2.85;;;;;;;;;;5129597;27;20031;-76
2021/08/14 16:13:34;;;;;;;3.60;2.70;;;;;;;;;;5136703;27;20035;-76
2021/08/14 16:16:19;;;;;;;10.82;3.38;;;;;;;;;;5118431;27;20039;-76
2021/08/14 16:19:03;;;;;;;9.82;3.17;;;;;;;;;;5132835;27;20027;-77
2021/08/14 16:21:47;;;;;;;9.50;3.38;;;;;;;;;;5137854;27;20031;-76
2021/08/14 16:24:31;;;;;;;7.07;2.97;;;;;;;;;;5135086;27;20031;-76
2021/08/14 16:27:16;;;;;;;11.43;3.92;;;;;;;;;;5131745;27;20503;-76
2021/08/14 16:30:00;;;;;;;8.73;4.00;;;;;;;;;;5138151;27;20027;-74
2021/08/14 16:32:44;;;;;;;7.72;3.33;;;;;;;;;;5134656;27;20035;-76